Time;durP1;ratioP1;P1;durP2;ratioP2;P2;SDS_P1;SDS_P2;PMS_P1;PMS_P2;Temp;Humidity;BMP_temperature;BMP_pressure;BME280_temperature;BME280_humidity;BME280_pressure;Samples;Min_cycle;Max_cycle;Signal;HPM_P1;HPM_P2
2022/09/22 00:00:24;;;;;;;12.93;8.20;;;;;;;;;;5116585;27;20310;-71
2022/09/22 00:02:50;;;;;;;11.90;7.88;;;;;;;;;;5118129;27;20063;-70
2022/09/22 00:05:15;;;;;;;10.07;7.40;;;;;;;;;;5119263;27;20023;-72
2022/09/22 00:07:40;;;;;;;15.32;8.90;;;;;;;;;;5107022;28;20122;-71
2022/09/22 00:10:06;;;;;;;11.00;7.40;;;;;;;;;;5119013;27;20118;-71
2022/09/22 00:12:31;;;;;;;15.90;8.57;;;;;;;;;;5116082;27;20276;-70
2022/09/22 00:14:57;;;;;;;12.20;7.73;;;;;;;;;;5117640;27;20015;-71
2022/09/22 00:17:22;;;;;;;12.10;7.63;;;;;;;9.68;nan;100994.88;5120109;27;20349;-71
2022/09/22 00:19:48;;;;;;;11.85;7.88;;;;;;;;;;5116868;27;20030;-71
2022/09/22 00:22:13;;;;;;;13.13;8.73;;;;;;;;;;5119785;27;20031;-71
2022/09/22 00:24:39;;;;;;;13.53;8.47;;;;;;;;;;5106677;27;20114;-70
2022/09/22 00:27:05;;;;;;;13.63;7.95;;;;;;;;;;5102594;27;20283;-71
2022/09/22 00:29:30;;;;;;;13.55;8.25;;;;;;;;;;5116023;27;20019;-71
2022/09/22 00:31:56;;;;;;;10.65;7.63;;;;;;;;;;5121593;27;20023;-71
2022/09/22 00:34:22;;;;;;;14.23;7.93;;;;;;;;;;5123729;27;20024;-72
2022/09/22 00:36:48;;;;;;;12.00;8.18;;;;;;;;;;5106764;27;20063;-73
2022/09/22 00:39:14;;;;;;;15.02;8.48;;;;;;;;;;5114982;27;20058;-72
2022/09/22 00:41:41;;;;;;;10.70;7.47;;;;;;;;;;5116691;27;20038;-73
2022/09/22 00:44:24;;;;;;;11.30;8.10;;;;;;;;;;5118365;27;20584;-73
2022/09/22 00:46:53;;;;;;;11.40;7.70;;;;;;;;;;5119346;27;20034;-72
2022/09/22 00:49:21;;;;;;;11.50;7.53;;;;;;;;;;5119081;27;20050;-71
2022/09/22 00:51:47;;;;;;;14.18;8.00;;;;;;;;;;5115070;27;20614;-73
2022/09/22 00:54:14;;;;;;;12.73;7.70;;;;;;;;;;5110951;27;20019;-73
2022/09/22 00:56:45;;;;;;;11.48;7.57;;;;;;;;;;5108954;27;20031;-72
2022/09/22 00:59:13;;;;;;;13.65;7.78;;;;;;;;;;5114508;27;20027;-72
2022/09/22 01:01:39;;;;;;;13.23;7.57;;;;;;;;;;5120764;27;20114;-73
2022/09/22 01:04:04;;;;;;;10.50;7.90;;;;;;;;;;5107627;27;20114;-72
2022/09/22 01:06:30;;;;;;;11.05;7.60;;;;;;;;;;5115486;27;20362;-73
2022/09/22 01:08:56;;;;;;;12.60;7.45;;;;;;;;;;5122738;27;20108;-72
2022/09/22 01:11:22;;;;;;;12.55;7.47;;;;;;;;;;5102209;28;20055;-73
2022/09/22 01:13:57;;;;;;;12.45;7.20;;;;;;;;;;5121389;27;20023;-73
2022/09/22 01:16:40;;;;;;;12.77;8.38;;;;;;;;;;5103373;28;20104;-73
2022/09/22 01:19:15;;;;;;;10.00;7.30;;;;;;;;;;5106615;27;20050;-73
2022/09/22 01:22:03;;;;;;;13.82;7.82;;;;;;;;;;5125714;27;20031;-73
2022/09/22 01:24:31;;;;;;;10.70;7.47;;;;;;;;;;5046833;28;20041;-73
2022/09/22 01:26:56;;;;;;;10.88;7.03;;;;;;;;;;5044017;28;20052;-73
2022/09/22 01:29:40;;;;;;;11.80;7.23;;;;;;;;;;5047515;28;20040;-73
2022/09/22 01:32:16;;;;;;;14.65;7.63;;;;;;;;;;5045343;28;20037;-73
2022/09/22 01:34:50;;;;;;;10.73;7.65;;;;;;;;;;5043604;28;20494;-72
2022/09/22 01:37:28;;;;;;;11.07;7.50;;;;;;;;;;5042790;28;20094;-72
2022/09/22 01:39:56;;;;;;;11.77;7.13;;;;;;;;;;5046400;28;20047;-73
2022/09/22 01:42:30;;;;;;;11.38;7.00;;;;;;;;;;5044684;28;20045;-73
2022/09/22 01:45:15;;;;;;;12.27;7.22;;;;;;;;;;5044145;28;20040;-73
2022/09/22 01:47:46;;;;;;;7.75;5.57;;;;;;;;;;5047235;28;20580;-73
2022/09/22 01:50:20;;;;;;;9.00;6.60;;;;;;;;;;5046143;28;20028;-71
2022/09/22 01:52:46;;;;;;;9.57;6.35;;;;;;;;;;5042272;28;20483;-72
2022/09/22 01:55:24;;;;;;;13.48;7.38;;;;;;;;;;5046405;28;20037;-73
2022/09/22 01:57:57;;;;;;;12.52;7.18;;;;;;;;;;5046305;28;20040;-73
2022/09/22 02:00:23;;;;;;;13.48;7.45;;;;;;;;;;5047328;28;20029;-72
2022/09/22 02:02:56;;;;;;;10.68;6.47;;;;;;;;;;5118173;27;20035;-73
2022/09/22 02:05:24;;;;;;;12.73;7.63;;;;;;;;;;5114696;27;20023;-73
2022/09/22 02:07:52;;;;;;;10.77;6.77;;;;;;;;;;5120785;27;20497;-73
2022/09/22 02:10:19;;;;;;;8.18;6.10;;;;;;;;;;5112819;27;20085;-72
2022/09/22 02:12:48;;;;;;;9.13;5.80;;;;;;;;;;5108670;27;20146;-74
2022/09/22 02:18:00;;;;;;;23.27;17.33;;;;;;;;;;5116890;27;20082;-73
2022/09/22 02:20:26;;;;;;;13.85;7.78;;;;;;;;;;5119875;27;20023;-71
2022/09/22 02:22:52;;;;;;;10.90;6.78;;;;;;;;;;5103585;27;20484;-73
2022/09/22 02:25:17;;;;;;;10.65;7.05;;;;;;;;;;5104128;27;20054;-73
2022/09/22 02:27:43;;;;;;;12.13;7.80;;;;;;;;;;5116511;27;20099;-73
2022/09/22 02:30:10;;;;;;;14.23;8.55;;;;;;;;;;5117686;27;20617;-73
2022/09/22 02:32:37;;;;;;;13.05;7.80;;;;;;;;;;5122458;27;20054;-73
2022/09/22 02:35:03;;;;;;;14.20;7.78;;;;;;;;;;5116837;27;20030;-73
2022/09/22 02:37:46;;;;;;;11.18;7.30;;;;;;;;;;5113079;27;20027;-73
2022/09/22 02:40:20;;;;;;;10.25;6.43;;;;;;;;;;5117584;27;20023;-73
2022/09/22 02:42:57;;;;;;;8.30;6.10;;;;;;;;;;5118317;28;20114;-73
2022/09/22 02:45:22;;;;;;;11.02;7.38;;;;;;;;;;5115752;28;20121;-73
2022/09/22 02:47:47;;;;;;;9.70;6.40;;;;;;;;;;5110611;28;20027;-73
2022/09/22 02:50:14;;;;;;;10.10;5.83;;;;;;;;;;5112627;28;20359;-73
2022/09/22 02:52:39;;;;;;;9.30;6.07;;;;;;;;;;5119656;28;20055;-73
2022/09/22 02:55:06;;;;;;;9.90;5.53;;;;;;;;;;5114193;28;20078;-73
2022/09/22 02:57:31;;;;;;;9.70;6.07;;;;;;;;;;5112397;28;21510;-73
2022/09/22 02:59:56;;;;;;;14.70;7.00;;;;;;;;;;5100879;28;20118;-73
2022/09/22 03:02:21;;;;;;;15.93;9.73;;;;;;;;;;5100032;28;20038;-73
2022/09/22 03:04:47;;;;;;;16.50;8.90;;;;;;;;;;5100980;28;20028;-73
2022/09/22 03:07:12;;;;;;;12.70;8.10;;;;;;;;;;5115566;28;20039;-72
2022/09/22 03:09:37;;;;;;;12.80;8.07;;;;;;;;;;5120000;28;20035;-73
2022/09/22 03:12:02;;;;;;;16.33;8.50;;;;;;;;;;5119812;27;20276;-73
2022/09/22 03:14:28;;;;;;;14.73;8.45;;;;;;;;;;5122499;27;20579;-72
2022/09/22 03:16:53;;;;;;;13.37;8.03;;;;;;;;;;5125001;27;20102;-73
2022/09/22 03:19:18;;;;;;;13.40;8.40;;;;;;;;;;5126725;27;20289;-73
2022/09/22 03:21:43;;;;;;;12.80;7.83;;;;;;;;;;5118846;27;20283;-73
2022/09/22 03:24:09;;;;;;;12.33;8.67;;;;;;;;;;5118478;27;20039;-72
2022/09/22 03:26:34;;;;;;;12.90;7.40;;;;;;;;;;5117022;27;20493;-72
2022/09/22 03:28:59;;;;;;;10.82;7.45;;;;;;;;;;5120047;27;20072;-71
2022/09/22 03:31:25;;;;;;;10.25;7.45;;;;;;;;;;5115543;27;20404;-73
2022/09/22 03:33:50;;;;;;;12.23;7.85;;;;;;;;;;5124044;27;20023;-74
2022/09/22 03:36:15;;;;;;;12.90;8.53;;;;;;;;;;5115826;27;20087;-73
2022/09/22 03:38:40;;;;;;;10.73;7.80;;;;;;;;;;5116266;27;20027;-72
2022/09/22 03:41:06;;;;;;;11.80;7.78;;;;;;;;;;5120169;27;20023;-73
2022/09/22 03:43:31;;;;;;;10.90;7.30;;;;;;;;;;5119692;27;20091;-73
2022/09/22 03:45:57;;;;;;;9.73;7.13;;;;;;;;;;5121369;27;20279;-74
2022/09/22 03:48:22;;;;;;;11.30;7.38;;;;;;;;;;5119170;27;20280;-73
2022/09/22 03:50:48;;;;;;;11.73;6.80;;;;;;;;;;5105800;27;20019;-73
2022/09/22 03:53:13;;;;;;;10.27;6.37;;;;;;;;;;5124206;27;20031;-72
2022/09/22 03:55:38;;;;;;;11.43;6.80;;;;;;;;;;5116516;27;20637;-72
2022/09/22 03:58:03;;;;;;;12.13;6.83;;;;;;;;;;5118058;27;20036;-72
2022/09/22 04:00:29;;;;;;;9.77;6.30;;;;;;;;;;5117996;27;20024;-72
2022/09/22 04:02:55;;;;;;;9.55;5.78;;;;;;;;;;5126850;27;20077;-73
2022/09/22 04:05:20;;;;;;;9.18;6.45;;;;;;;;;;5115297;27;20026;-71
2022/09/22 04:07:45;;;;;;;8.23;5.60;;;;;;;;;;5122081;27;20024;-71
2022/09/22 04:10:11;;;;;;;8.30;5.60;;;;;;;;;;5104045;27;20027;-71
2022/09/22 04:12:36;;;;;;;6.10;4.87;;;;;;;;;;5118505;27;20115;-71
2022/09/22 04:15:01;;;;;;;7.47;4.90;;;;;;;;;;5112162;27;20286;-71
2022/09/22 04:17:26;;;;;;;7.43;4.93;;;;;;;;;;5109501;27;20028;-71
2022/09/22 04:19:54;;;;;;;8.60;5.20;;;;;;;;;;5096386;27;20126;-71
2022/09/22 04:22:19;;;;;;;11.23;6.13;;;;;;;;;;5121443;27;20058;-71
2022/09/22 04:24:44;;;;;;;13.23;5.73;;;;;;;;;;5104502;28;20035;-71
2022/09/22 04:27:09;;;;;;;10.77;6.47;;;;;;;;;;5119100;27;20676;-71
2022/09/22 04:29:35;;;;;;;12.50;7.40;;;;;;;;;;5123370;27;20024;-71
2022/09/22 04:32:00;;;;;;;13.03;7.03;;;;;;;;;;5117288;27;20369;-70
2022/09/22 04:34:25;;;;;;;11.77;6.82;;;;;;;;;;5111295;27;20707;-69
2022/09/22 04:36:51;;;;;;;11.13;7.00;;;;;;;;;;5119598;27;20019;-71
2022/09/22 04:39:16;;;;;;;20.30;7.28;;;;;;;;;;5118834;27;20034;-70
2022/09/22 04:41:41;;;;;;;12.93;7.00;;;;;;;;;;5122754;27;20030;-71
2022/09/22 04:44:06;;;;;;;15.50;6.83;;;;;;;;;;5121278;27;20276;-71
2022/09/22 04:46:32;;;;;;;14.70;7.20;;;;;;;;;;5116907;27;20028;-71
2022/09/22 04:48:57;;;;;;;12.00;7.43;;;;;;;;;;5119947;27;20683;-71
2022/09/22 04:51:22;;;;;;;20.27;6.78;;;;;;;;;;5118065;27;20275;-71
2022/09/22 04:53:48;;;;;;;18.70;7.10;;;;;;;;;;5111677;27;20059;-71
2022/09/22 04:56:13;;;;;;;28.67;7.93;;;;;;;;;;5102213;27;20756;-70
2022/09/22 04:58:38;;;;;;;15.90;7.60;;;;;;;;;;5118402;27;20053;-70
2022/09/22 05:01:04;;;;;;;13.27;7.35;;;;;;;;;;5101304;27;20329;-71
2022/09/22 05:03:30;;;;;;;15.23;8.38;;;;;;;;;;5115022;27;20496;-71
2022/09/22 05:05:55;;;;;;;17.30;9.23;;;;;;;;;;5117305;27;20038;-70
2022/09/22 05:08:20;;;;;;;15.63;9.38;;;;;;;;;;5097273;27;20051;-70
2022/09/22 05:10:46;;;;;;;19.53;9.80;;;;;;;;;;5105261;27;20029;-71
2022/09/22 05:13:12;;;;;;;19.35;9.25;;;;;;;;;;5118141;27;20015;-70
2022/09/22 05:15:37;;;;;;;28.55;9.02;;;;;;;;;;5119664;27;20154;-68
2022/09/22 05:18:02;;;;;;;22.20;9.60;;;;;;;;;;5122188;27;20604;-67
2022/09/22 05:20:28;;;;;;;20.83;9.03;;;;;;;;;;5119743;27;20282;-66
2022/09/22 05:22:56;;;;;;;19.63;9.50;;;;;;;7.77;nan;100955.59;5098633;28;20135;-68
2022/09/22 05:25:21;;;;;;;15.18;8.80;;;;;;;;;;5097493;28;20308;-67
2022/09/22 05:27:56;;;;;;;15.43;9.15;;;;;;;;;;5098860;28;20074;-66
2022/09/22 05:30:22;;;;;;;20.60;9.60;;;;;;;;;;5091854;28;20028;-66
2022/09/22 05:32:48;;;;;;;17.55;9.38;;;;;;;;;;5094693;28;20109;-67
2022/09/22 05:35:14;;;;;;;14.02;9.38;;;;;;;;;;5094987;28;20485;-67
2022/09/22 05:37:41;;;;;;;17.02;10.35;;;;;;;;;;5105825;28;20172;-68
2022/09/22 05:40:07;;;;;;;18.17;9.27;;;;;;;;;;5106638;28;20110;-73
2022/09/22 05:42:32;;;;;;;16.73;9.85;;;;;;;;;;5100940;28;20106;-73
2022/09/22 05:44:57;;;;;;;16.98;10.20;;;;;;;;;;5097267;28;20020;-72
2022/09/22 05:47:23;;;;;;;16.20;9.97;;;;;;;;;;5099279;27;20034;-72
2022/09/22 05:49:48;;;;;;;21.53;11.60;;;;;;;;;;5097206;28;20285;-67
2022/09/22 05:52:13;;;;;;;23.63;12.77;;;;;;;;;;5099681;28;20032;-68
2022/09/22 05:54:38;;;;;;;21.93;12.87;;;;;;;;;;5096022;28;20032;-68
2022/09/22 05:57:04;;;;;;;26.57;12.33;;;;;;;;;;5095497;28;20035;-67
2022/09/22 05:59:29;;;;;;;19.73;11.43;;;;;;;;;;5094936;28;20058;-68
2022/09/22 06:01:54;;;;;;;30.20;13.03;;;;;;;;;;5094035;28;20284;-68
2022/09/22 06:04:19;;;;;;;25.35;13.05;;;;;;;;;;5092840;28;20024;-68
2022/09/22 06:06:45;;;;;;;28.53;13.33;;;;;;;;;;5093493;28;20046;-68
2022/09/22 06:09:10;;;;;;;26.77;13.40;;;;;;;;;;5105344;28;20287;-68
2022/09/22 06:11:36;;;;;;;27.63;15.20;;;;;;;;;;5095656;28;20054;-68
2022/09/22 06:14:01;;;;;;;29.40;13.32;;;;;;;;;;5097370;28;20020;-67
2022/09/22 06:16:26;;;;;;;26.97;14.20;;;;;;;;;;5101122;28;20024;-67
2022/09/22 06:18:51;;;;;;;28.42;14.88;;;;;;;;;;5093174;28;20062;-67
2022/09/22 06:21:17;;;;;;;31.80;14.80;;;;;;;;;;5098148;28;20028;-68
2022/09/22 06:23:43;;;;;;;32.83;16.17;;;;;;;;;;5110517;27;20129;-68
2022/09/22 06:26:08;;;;;;;31.02;16.00;;;;;;;;;;5100382;28;20039;-68
2022/09/22 06:28:34;;;;;;;35.13;16.73;;;;;;;;;;5103136;27;21056;-67
2022/09/22 06:30:59;;;;;;;32.33;16.55;;;;;;;;;;5114803;27;20031;-68
2022/09/22 06:33:25;;;;;;;37.17;17.40;;;;;;;;;;5114036;28;20023;-68
2022/09/22 06:35:50;;;;;;;39.75;16.40;;;;;;;;;;5118615;27;20011;-68
2022/09/22 06:38:15;;;;;;;41.47;16.87;;;;;;;;;;5118072;28;20038;-68
2022/09/22 06:40:41;;;;;;;32.83;17.15;;;;;;;;;;5115590;27;20039;-71
2022/09/22 06:43:11;;;;;;;33.85;16.58;;;;;;;;;;5113095;27;20031;-71
2022/09/22 06:45:37;;;;;;;36.28;17.15;;;;;;;;;;5117952;28;20034;-72
2022/09/22 06:48:03;;;;;;;35.97;16.67;;;;;;;;;;5112484;28;20030;-70
2022/09/22 06:50:31;;;;;;;27.45;15.75;;;;;;;;;;5116451;28;20019;-72
2022/09/22 06:53:00;;;;;;;30.38;15.30;;;;;;;;;;5117941;28;20098;-72
2022/09/22 06:55:26;;;;;;;29.00;15.45;;;;;;;;;;5113182;28;20031;-67
2022/09/22 06:57:51;;;;;;;56.88;29.10;;;;;;;;;;5118896;28;20121;-68
2022/09/22 07:00:17;;;;;;;77.03;39.37;;;;;;;;;;5096085;28;20077;-69
2022/09/22 07:02:42;;;;;;;55.23;28.13;;;;;;;;;;5115188;28;20380;-68
2022/09/22 07:05:07;;;;;;;36.97;20.53;;;;;;;;;;5112628;28;20283;-69
2022/09/22 07:07:32;;;;;;;34.17;17.17;;;;;;;;;;5107292;28;20259;-69
2022/09/22 07:09:58;;;;;;;29.83;15.63;;;;;;;;;;5123009;28;20029;-69
2022/09/22 07:12:24;;;;;;;22.08;13.25;;;;;;;;;;5119975;28;20113;-69
2022/09/22 07:14:51;;;;;;;20.67;12.48;;;;;;;;;;5116304;28;20024;-68
2022/09/22 07:17:17;;;;;;;23.20;13.57;;;;;;;;;;5123275;28;20448;-69
2022/09/22 07:19:42;;;;;;;24.02;13.85;;;;;;;;;;5116942;28;20055;-68
2022/09/22 07:22:08;;;;;;;26.23;12.88;;;;;;;;;;5118825;28;20399;-69
2022/09/22 07:24:33;;;;;;;24.17;13.30;;;;;;;;;;5103953;28;20031;-69
2022/09/22 07:27:03;;;;;;;23.85;13.60;;;;;;;;;;5117170;28;20268;-69
2022/09/22 07:29:29;;;;;;;18.00;12.23;;;;;;;8.66;nan;101018.59;5106580;28;20084;-69
2022/09/22 07:31:58;;;;;;;21.08;12.90;;;;;;;;;;5119008;28;20035;-69
2022/09/22 07:34:23;;;;;;;20.20;12.75;;;;;;;;;;5118525;28;20393;-69
2022/09/22 07:36:48;;;;;;;20.40;13.20;;;;;;;;;;5119234;28;20039;-69
2022/09/22 07:39:13;;;;;;;23.93;13.37;;;;;;;;;;5112306;28;20272;-69
2022/09/22 07:41:42;;;;;;;22.50;13.73;;;;;;;;;;5117495;28;20279;-68
2022/09/22 07:47:03;;;;;;;19.63;12.77;;;;;;;;;;5004678;28;20030;-69
2022/09/22 07:49:28;;;;;;;19.88;13.50;;;;;;;;;;5007020;28;20084;-69
2022/09/22 07:51:56;;;;;;;21.00;12.37;;;;;;;;;;5006904;28;20034;-69
2022/09/22 07:54:22;;;;;;;20.42;12.23;;;;;;;;;;5007223;28;20267;-69
2022/09/22 07:56:48;;;;;;;18.55;12.15;;;;;;;;;;5007590;28;20377;-69
2022/09/22 07:59:15;;;;;;;18.77;12.23;;;;;;;;;;5004988;28;20040;-69
2022/09/22 08:01:42;;;;;;;19.85;12.45;;;;;;;;;;5009204;28;20057;-74
2022/09/22 08:04:11;;;;;;;17.83;11.85;;;;;;;;;;5008912;28;20026;-74
2022/09/22 08:06:37;;;;;;;18.58;11.50;;;;;;;;;;5013630;28;20101;-74
2022/09/22 08:09:03;;;;;;;17.77;12.27;;;;;;;;;;5010734;28;20527;-74
2022/09/22 08:11:29;;;;;;;18.70;11.93;;;;;;;;;;5010702;28;20416;-74
2022/09/22 08:14:01;;;;;;;20.02;12.43;;;;;;;;;;5010138;28;20029;-73
2022/09/22 08:16:27;;;;;;;17.25;11.57;;;;;;;;;;5008134;28;20439;-74
2022/09/22 08:18:55;;;;;;;16.77;11.88;;;;;;;;;;5010679;28;20124;-74
2022/09/22 08:21:21;;;;;;;17.90;11.82;;;;;;;;;;5009707;28;20056;-74
2022/09/22 08:23:48;;;;;;;15.65;11.30;;;;;;;;;;5067844;28;20040;-74
2022/09/22 08:26:14;;;;;;;16.98;11.63;;;;;;;;;;5100423;28;20505;-74
2022/09/22 08:28:39;;;;;;;16.23;11.80;;;;;;;;;;5103023;28;20115;-73
2022/09/22 08:31:10;;;;;;;19.40;11.60;;;;;;;;;;5100907;28;20286;-74
2022/09/22 08:33:35;;;;;;;16.42;10.52;;;;;;;;;;5103430;28;20032;-70
2022/09/22 08:36:02;;;;;;;16.60;10.50;;;;;;;;;;5098599;28;20027;-69
2022/09/22 08:38:28;;;;;;;15.98;10.73;;;;;;;;;;5095853;28;20416;-73
2022/09/22 08:40:58;;;;;;;16.98;11.27;;;;;;;;;;5095292;28;20024;-73
2022/09/22 08:43:23;;;;;;;15.20;10.40;;;;;;;;;;5100368;28;20023;-74
2022/09/22 08:45:48;;;;;;;16.03;10.53;;;;;;;;;;5092468;28;20020;-73
2022/09/22 08:54:07;;;;;;;15.80;9.90;;;;;;;;;;5094046;28;20051;-73
2022/09/22 08:56:35;;;;;;;17.80;9.75;;;;;;;;;;5097533;28;20068;-74
2022/09/22 08:59:22;;;;;;;17.92;10.23;;;;;;;;;;5097578;28;20024;-74
2022/09/22 09:01:53;;;;;;;16.83;10.63;;;;;;;;;;5096390;28;20028;-74
2022/09/22 09:04:28;;;;;;;14.40;9.93;;;;;;;;;;5103871;28;20032;-73
2022/09/22 09:07:06;;;;;;;19.20;10.18;;;;;;;;;;5103168;28;20385;-73
2022/09/22 09:09:38;;;;;;;14.48;9.55;;;;;;;;;;5093024;28;20016;-74
2022/09/22 09:12:15;;;;;;;14.40;8.68;;;;;;;;;;5109631;27;20027;-74
2022/09/22 09:15:16;;;;;;;12.43;8.05;;;;;;;;;;5098679;28;20111;-69
2022/09/22 09:17:43;;;;;;;11.45;7.03;;;;;;;;;;5082755;28;20089;-69
2022/09/22 09:20:11;;;;;;;10.57;7.60;;;;;;;;;;5085758;28;20119;-69
2022/09/22 09:22:39;;;;;;;11.80;8.15;;;;;;;;;;5065641;28;20048;-69
2022/09/22 09:25:07;;;;;;;9.68;7.35;;;;;;;;;;5080558;28;20050;-69
2022/09/22 09:27:35;;;;;;;10.32;7.07;;;;;;;;;;5084188;28;20115;-68
2022/09/22 09:30:01;;;;;;;7.90;5.93;;;;;;;;;;5083176;28;20040;-68
2022/09/22 09:32:32;;;;;;;8.57;5.90;;;;;;;;;;5083350;28;20119;-69
2022/09/22 09:34:57;;;;;;;7.70;5.38;;;;;;;;;;5073352;28;20504;-68
2022/09/22 09:37:23;;;;;;;8.45;6.13;;;;;;;;;;5067617;28;20035;-68
2022/09/22 09:39:48;;;;;;;6.57;4.82;;;;;;;;;;5081564;28;20028;-69
2022/09/22 09:42:24;;;;;;;9.57;5.20;;;;;;;;;;5085612;28;20023;-70
2022/09/22 09:44:53;;;;;;;9.82;5.18;;;;;;;;;;5081093;28;20621;-68
2022/09/22 09:47:37;;;;;;;6.75;5.30;;;;;;;;;;5085654;28;20032;-68
2022/09/22 09:50:03;;;;;;;7.22;5.68;;;;;;;;;;5080600;28;20477;-68
2022/09/22 09:52:29;;;;;;;6.57;4.40;;;;;;;;;;5098983;28;20028;-68
2022/09/22 09:54:54;;;;;;;5.22;4.30;;;;;;;;;;5098670;28;20047;-67
2022/09/22 09:57:20;;;;;;;6.73;4.30;;;;;;;;;;5097779;28;20016;-67
2022/09/22 10:02:56;;;;;;;7.47;4.45;;;;;;;;;;5097301;28;20544;-69
2022/09/22 10:05:25;;;;;;;8.70;4.88;;;;;;;;;;5094865;28;20032;-68
2022/09/22 10:07:50;;;;;;;;;;;;;;;;;;5096382;28;20020;-68
2022/09/22 10:10:27;;;;;;;6.82;4.10;;;;;;;;;;5095708;28;19916;-68
2022/09/22 10:12:53;;;;;;;9.38;4.18;;;;;;;;;;5090706;28;20081;-68
2022/09/22 10:15:22;;;;;;;6.32;3.80;;;;;;;;;;5106503;28;20023;-68
2022/09/22 10:17:50;;;;;;;6.18;3.40;;;;;;;13.35;nan;100990.78;5094458;28;20028;-69
2022/09/22 10:20:19;;;;;;;6.20;3.90;;;;;;;;;;5092997;28;20026;-68
2022/09/22 10:22:44;;;;;;;6.47;3.85;;;;;;;;;;5103581;28;20052;-68
2022/09/22 10:25:18;;;;;;;6.88;4.03;;;;;;;;;;5109166;27;20472;-69
2022/09/22 10:27:57;;;;;;;4.68;3.35;;;;;;;;;;5105032;28;20388;-71
2022/09/22 10:30:23;;;;;;;8.20;3.40;;;;;;;;;;5124040;27;20022;-70
2022/09/22 10:33:07;;;;;;;6.22;3.60;;;;;;;;;;5113143;28;20031;-72
2022/09/22 10:35:34;;;;;;;7.78;3.47;;;;;;;;;;5109660;28;20023;-72
2022/09/22 10:38:06;;;;;;;5.95;2.63;;;;;;;;;;5113164;27;20483;-72
2022/09/22 10:40:32;;;;;;;5.47;3.28;;;;;;;;;;5115212;27;20793;-73
2022/09/22 10:42:58;;;;;;;8.68;3.38;;;;;;;;;;5117546;27;20030;-72
2022/09/22 10:45:37;;;;;;;4.90;2.70;;;;;;;;;;5111747;28;20093;-72
2022/09/22 10:48:10;;;;;;;5.13;3.00;;;;;;;;;;5113800;28;20478;-72
2022/09/22 10:50:52;;;;;;;5.05;3.17;;;;;;;;;;5118831;28;20027;-71
2022/09/22 10:53:36;;;;;;;4.88;2.88;;;;;;;;;;5105083;28;20094;-71
2022/09/22 10:56:14;;;;;;;5.38;2.58;;;;;;;;;;5103647;28;20068;-70
2022/09/22 10:58:39;;;;;;;4.78;3.10;;;;;;;;;;5111690;28;20044;-71
2022/09/22 11:01:10;;;;;;;9.07;2.93;;;;;;;;;;5121834;28;20380;-72
2022/09/22 11:03:48;;;;;;;4.60;3.00;;;;;;;;;;5119734;28;20034;-71
2022/09/22 11:12:15;;;;;;;3.92;2.80;;;;;;;;;;5116643;28;20115;-71
2022/09/22 11:14:47;;;;;;;3.40;2.65;;;;;;;;;;5113433;28;20031;-71
2022/09/22 11:17:21;;;;;;;2.60;2.40;;;;;;;;;;5108017;28;20024;-72
2022/09/22 11:20:01;;;;;;;5.85;2.78;;;;;;;;;;5097375;28;20031;-71
2022/09/22 11:22:26;;;;;;;5.78;3.30;;;;;;;;;;5105893;28;20078;-70
2022/09/22 11:25:00;;;;;;;6.77;2.73;;;;;;;;;;5112150;28;20054;-72
2022/09/22 11:27:44;;;;;;;6.35;2.70;;;;;;;;;;5114244;28;20034;-71
2022/09/22 11:30:12;;;;;;;5.13;2.60;;;;;;;;;;5121725;28;20015;-71
2022/09/22 11:32:43;;;;;;;3.58;2.80;;;;;;;;;;5120444;27;20119;-71
2022/09/22 11:35:27;;;;;;;3.78;1.98;;;;;;;;;;5123071;27;20020;-71
2022/09/22 11:38:00;;;;;;;4.68;2.80;;;;;;;;;;5122104;27;20068;-71
2022/09/22 11:40:32;;;;;;;3.95;2.33;;;;;;;;;;5120546;27;20060;-71
2022/09/22 11:43:16;;;;;;;8.75;2.63;;;;;;;;;;5119273;27;20106;-70
2022/09/22 11:45:47;;;;;;;4.75;2.50;;;;;;;;;;5104901;27;20027;-71
2022/09/22 11:48:29;;;;;;;6.82;1.90;;;;;;;;;;5117942;27;20058;-70
2022/09/22 11:51:13;;;;;;;2.00;1.77;;;;;;;;;;5122923;27;20122;-71
2022/09/22 11:53:59;;;;;;;8.20;2.03;;;;;;;;;;5113100;27;20035;-70
2022/09/22 11:56:41;;;;;;;3.05;1.48;;;;;;;;;;5119615;27;20035;-71
2022/09/22 11:59:20;;;;;;;3.60;1.52;;;;;;;;;;5117289;27;20391;-71
2022/09/22 12:01:46;;;;;;;2.23;1.40;;;;;;;;;;5108098;27;20038;-71
2022/09/22 12:04:25;;;;;;;2.15;1.70;;;;;;;;;;5120750;27;20031;-71
2022/09/22 12:06:53;;;;;;;5.35;2.55;;;;;;;;;;5118091;27;20026;-71
2022/09/22 12:09:27;;;;;;;5.28;2.90;;;;;;;;;;5119785;27;20035;-70
2022/09/22 12:11:55;;;;;;;4.38;3.10;;;;;;;13.73;nan;100894.25;5115381;27;20028;-71
2022/09/22 12:14:20;;;;;;;4.15;2.95;;;;;;;;;;5116588;27;20516;-71
2022/09/22 12:16:48;;;;;;;5.13;3.00;;;;;;;;;;5116173;27;20565;-71
2022/09/22 12:19:23;;;;;;;6.68;3.28;;;;;;;;;;5111203;27;20030;-69
2022/09/22 12:21:53;;;;;;;6.10;3.70;;;;;;;;;;5117363;27;20024;-69
2022/09/22 12:24:19;;;;;;;4.88;3.78;;;;;;;;;;5102585;28;20027;-68
2022/09/22 12:26:45;;;;;;;4.30;3.50;;;;;;;;;;5119351;27;20123;-69
2022/09/22 12:29:14;;;;;;;5.80;3.53;;;;;;;;;;5099090;27;20020;-72
2022/09/22 12:31:40;;;;;;;3.65;3.03;;;;;;;;;;5120089;27;20120;-72
2022/09/22 12:34:14;;;;;;;3.78;2.95;;;;;;;;;;5116542;27;20441;-72
2022/09/22 12:36:40;;;;;;;5.18;3.17;;;;;;;;;;5120703;27;20027;-72
2022/09/22 12:39:16;;;;;;;3.75;2.90;;;;;;;;;;5107777;27;20041;-72
2022/09/22 12:41:52;;;;;;;4.20;2.30;;;;;;;;;;5115656;27;20068;-71
2022/09/22 12:44:22;;;;;;;3.92;1.83;;;;;;;;;;5103622;28;20116;-72
2022/09/22 12:46:49;;;;;;;3.95;1.40;;;;;;;;;;5116776;27;20024;-72
2022/09/22 12:49:19;;;;;;;3.65;1.30;;;;;;;14.49;nan;100884.31;5120853;27;20076;-72
2022/09/22 12:51:44;;;;;;;2.00;1.52;;;;;;;;;;5118669;27;20371;-72
2022/09/22 12:54:21;;;;;;;4.20;1.33;;;;;;;;;;5121544;27;20037;-72
2022/09/22 12:56:59;;;;;;;2.10;1.50;;;;;;;;;;5114142;27;20019;-73
2022/09/22 12:59:50;;;;;;;2.67;1.60;;;;;;;;;;5119434;27;20019;-72
2022/09/22 13:02:16;;;;;;;2.10;1.60;;;;;;;;;;5087671;27;20107;-73
2022/09/22 13:04:48;;;;;;;2.33;1.73;;;;;;;;;;5115205;27;20390;-69
2022/09/22 13:07:32;;;;;;;4.22;1.90;;;;;;;;;;5116895;27;20134;-71
2022/09/22 13:10:15;;;;;;;4.20;1.80;;;;;;;;;;5115217;27;20019;-70
2022/09/22 13:13:09;;;;;;;4.03;1.90;;;;;;;;;;5121824;27;20497;-70
2022/09/22 13:15:50;;;;;;;3.88;1.73;;;;;;;;;;5118347;27;20035;-70
2022/09/22 13:18:31;;;;;;;2.70;1.98;;;;;;;;;;5108290;27;20022;-70
2022/09/22 13:20:57;;;;;;;3.40;2.22;;;;;;;;;;5104904;27;20425;-69
2022/09/22 13:23:22;;;;;;;9.05;2.55;;;;;;;;;;5101686;28;20051;-69
2022/09/22 13:25:50;;;;;;;3.63;2.13;;;;;;;;;;5106563;27;20046;-68
2022/09/22 13:28:23;;;;;;;6.60;2.17;;;;;;;;;;5117740;27;20033;-68
2022/09/22 13:31:03;;;;;;;4.95;2.20;;;;;;;;;;5121693;27;20076;-69
2022/09/22 13:33:31;;;;;;;4.35;2.60;;;;;;;;;;5117435;27;20042;-69
2022/09/22 13:35:57;;;;;;;5.53;2.10;;;;;;;;;;5107946;27;20042;-69
2022/09/22 13:38:22;;;;;;;4.53;2.17;;;;;;;;;;5119467;27;20055;-68
2022/09/22 13:40:48;;;;;;;6.70;2.80;;;;;;;;;;5096170;27;20058;-69
2022/09/22 13:43:19;;;;;;;12.20;3.03;;;;;;;;;;5121288;27;20368;-69
2022/09/22 13:45:45;;;;;;;7.32;3.13;;;;;;;;;;5118535;27;20028;-69
2022/09/22 13:48:13;;;;;;;11.95;3.72;;;;;;;;;;5118795;27;20080;-69
2022/09/22 13:50:40;;;;;;;8.23;3.60;;;;;;;;;;5117812;27;20028;-69
2022/09/22 13:53:06;;;;;;;8.05;3.75;;;;;;;;;;5120260;27;20027;-68
2022/09/22 13:55:36;;;;;;;10.18;4.05;;;;;;;;;;5118015;27;20102;-69
2022/09/22 13:58:04;;;;;;;8.65;3.72;;;;;;;;;;5120572;27;20089;-68
2022/09/22 14:00:39;;;;;;;7.78;3.50;;;;;;;;;;5116005;27;20027;-71
2022/09/22 14:03:04;;;;;;;7.97;3.67;;;;;;;;;;5119736;27;20023;-71
2022/09/22 14:05:34;;;;;;;6.27;4.30;;;;;;;;;;5098679;27;20077;-72
2022/09/22 14:08:02;;;;;;;4.10;3.00;;;;;;;;;;5113393;27;20275;-72
2022/09/22 14:10:27;;;;;;;20.17;5.90;;;;;;;;;;5118409;27;20016;-71
2022/09/22 14:12:53;;;;;;;7.18;3.45;;;;;;;;;;5103826;28;20559;-70
2022/09/22 14:15:51;;;;;;;4.13;2.70;;;;;;;;;;5121672;27;20027;-71
2022/09/22 14:18:25;;;;;;;4.28;2.72;;;;;;;;;;5070476;27;20073;-70
2022/09/22 14:20:52;;;;;;;7.20;2.67;;;;;;;;;;5108419;27;20045;-71
2022/09/22 14:23:27;;;;;;;3.60;2.58;;;;;;;;;;5114828;27;20398;-70
2022/09/22 14:25:53;;;;;;;3.97;2.70;;;;;;;;;;5116298;27;20027;-70
2022/09/22 14:28:21;;;;;;;6.55;3.10;;;;;;;;;;5116732;27;20512;-71
2022/09/22 14:30:46;;;;;;;3.38;2.80;;;;;;;;;;5104837;27;20027;-71
2022/09/22 14:33:14;;;;;;;4.90;3.20;;;;;;;;;;5118146;27;20382;-71
2022/09/22 14:35:40;;;;;;;7.43;3.53;;;;;;;;;;5105211;27;20063;-72
2022/09/22 14:38:06;;;;;;;4.25;2.72;;;;;;;;;;5099811;27;20464;-71
2022/09/22 14:40:32;;;;;;;4.05;3.00;;;;;;;;;;5115351;27;20055;-69
2022/09/22 14:42:57;;;;;;;12.32;5.22;;;;;;;;;;5118208;27;20058;-73
2022/09/22 14:45:24;;;;;;;14.27;4.80;;;;;;;;;;5117019;27;20099;-73
2022/09/22 14:48:08;;;;;;;10.32;3.63;;;;;;;;;;5116022;28;20107;-73
2022/09/22 14:50:51;;;;;;;12.52;4.57;;;;;;;;;;5104526;28;20020;-73
2022/09/22 14:53:28;;;;;;;4.60;2.22;;;;;;;;;;5114298;28;20023;-72
2022/09/22 14:55:59;;;;;;;5.78;3.10;;;;;;;;;;5115652;28;20042;-72
2022/09/22 14:58:26;;;;;;;6.03;2.80;;;;;;;;;;5115919;28;20131;-73